sensor_id;sensor_type;location;lat;lon;timestamp;pressure;altitude;pressure_sealevel;temperature;humidity
40650;BME280;26342;42.826;23.992;2024-01-06T00:01:24;95007.53;;;6.06;100.00
40650;BME280;26342;42.826;23.992;2024-01-06T00:03:50;95006.78;;;5.94;100.00
40650;BME280;26342;42.826;23.992;2024-01-06T00:06:15;95021.97;;;5.98;100.00
40650;BME280;26342;42.826;23.992;2024-01-06T00:08:41;95029.09;;;5.98;100.00
40650;BME280;26342;42.826;23.992;2024-01-06T00:11:06;95022.50;;;6.00;100.00
40650;BME280;26342;42.826;23.992;2024-01-06T00:13:31;95040.50;;;5.98;100.00
40650;BME280;26342;42.826;23.992;2024-01-06T00:15:57;95028.63;;;5.89;100.00
40650;BME280;26342;42.826;23.992;2024-01-06T00:18:22;95021.63;;;5.95;100.00
40650;BME280;26342;42.826;23.992;2024-01-06T00:20:48;95032.31;;;6.00;100.00
40650;BME280;26342;42.826;23.992;2024-01-06T00:23:13;95033.47;;;6.04;100.00
40650;BME280;26342;42.826;23.992;2024-01-06T00:25:38;95031.63;;;6.04;100.00
40650;BME280;26342;42.826;23.992;2024-01-06T00:28:04;95038.66;;;5.99;100.00
40650;BME280;26342;42.826;23.992;2024-01-06T00:30:29;95046.16;;;6.02;100.00
40650;BME280;26342;42.826;23.992;2024-01-06T00:32:55;95035.41;;;6.08;100.00
40650;BME280;26342;42.826;23.992;2024-01-06T00:35:20;95039.41;;;6.11;100.00
40650;BME280;26342;42.826;23.992;2024-01-06T00:37:45;95055.19;;;6.18;100.00
40650;BME280;26342;42.826;23.992;2024-01-06T00:40:11;95054.00;;;6.25;100.00
40650;BME280;26342;42.826;23.992;2024-01-06T00:42:37;95042.38;;;6.14;100.00
40650;BME280;26342;42.826;23.992;2024-01-06T00:45:03;95052.97;;;6.14;100.00
40650;BME280;26342;42.826;23.992;2024-01-06T00:47:29;95049.09;;;6.05;100.00
40650;BME280;26342;42.826;23.992;2024-01-06T00:49:54;95034.75;;;6.01;100.00
40650;BME280;26342;42.826;23.992;2024-01-06T00:52:20;95038.41;;;6.00;100.00
40650;BME280;26342;42.826;23.992;2024-01-06T00:54:45;95031.94;;;6.08;100.00
40650;BME280;26342;42.826;23.992;2024-01-06T00:57:12;95037.00;;;6.09;100.00
40650;BME280;26342;42.826;23.992;2024-01-06T00:59:37;95015.66;;;6.16;100.00
40650;BME280;26342;42.826;23.992;2024-01-06T01:02:03;95008.44;;;6.11;100.00
40650;BME280;26342;42.826;23.992;2024-01-06T01:04:28;95010.75;;;6.08;100.00
40650;BME280;26342;42.826;23.992;2024-01-06T01:06:53;95016.75;;;6.03;100.00
40650;BME280;26342;42.826;23.992;2024-01-06T01:09:19;94991.00;;;5.87;100.00
40650;BME280;26342;42.826;23.992;2024-01-06T01:11:44;94988.47;;;5.92;100.00
40650;BME280;26342;42.826;23.992;2024-01-06T01:14:10;95008.84;;;5.92;100.00
40650;BME280;26342;42.826;23.992;2024-01-06T01:16:35;94989.97;;;5.88;100.00
40650;BME280;26342;42.826;23.992;2024-01-06T01:19:00;94979.50;;;5.81;100.00
40650;BME280;26342;42.826;23.992;2024-01-06T01:21:27;94976.97;;;5.86;100.00
40650;BME280;26342;42.826;23.992;2024-01-06T01:23:52;94982.38;;;5.92;100.00
40650;BME280;26342;42.826;23.992;2024-01-06T01:26:18;94989.47;;;5.63;100.00
40650;BME280;26342;42.826;23.992;2024-01-06T01:28:43;94998.59;;;5.55;100.00
40650;BME280;26342;42.826;23.992;2024-01-06T01:31:09;95026.19;;;5.59;100.00
40650;BME280;26342;42.826;23.992;2024-01-06T01:33:34;95033.00;;;5.43;100.00
40650;BME280;26342;42.826;23.992;2024-01-06T01:35:59;95014.50;;;5.31;100.00
40650;BME280;26342;42.826;23.992;2024-01-06T01:38:25;95012.88;;;5.42;100.00
40650;BME280;26342;42.826;23.992;2024-01-06T01:40:50;95021.28;;;5.39;100.00
40650;BME280;26342;42.826;23.992;2024-01-06T01:43:19;95028.88;;;5.36;100.00
40650;BME280;26342;42.826;23.992;2024-01-06T01:45:45;95025.44;;;5.35;100.00
40650;BME280;26342;42.826;23.992;2024-01-06T01:48:13;95018.19;;;5.30;100.00
40650;BME280;26342;42.826;23.992;2024-01-06T01:50:38;95024.97;;;5.38;100.00
40650;BME280;26342;42.826;23.992;2024-01-06T01:53:04;95011.16;;;5.36;100.00
40650;BME280;26342;42.826;23.992;2024-01-06T01:55:29;95000.47;;;5.31;100.00
40650;BME280;26342;42.826;23.992;2024-01-06T01:57:55;94995.91;;;5.15;100.00
40650;BME280;26342;42.826;23.992;2024-01-06T02:00:20;94988.50;;;5.28;100.00
40650;BME280;26342;42.826;23.992;2024-01-06T02:02:46;95019.00;;;5.31;100.00
40650;BME280;26342;42.826;23.992;2024-01-06T02:05:11;95012.31;;;5.40;100.00
40650;BME280;26342;42.826;23.992;2024-01-06T02:07:36;95005.06;;;5.36;100.00
40650;BME280;26342;42.826;23.992;2024-01-06T02:10:02;95001.06;;;5.33;100.00
40650;BME280;26342;42.826;23.992;2024-01-06T02:12:27;94997.34;;;5.34;100.00
40650;BME280;26342;42.826;23.992;2024-01-06T02:14:53;94995.16;;;5.43;100.00
40650;BME280;26342;42.826;23.992;2024-01-06T02:17:18;94993.59;;;5.30;100.00
40650;BME280;26342;42.826;23.992;2024-01-06T02:19:44;94982.31;;;5.23;100.00
40650;BME280;26342;42.826;23.992;2024-01-06T02:22:09;94993.72;;;5.23;100.00
40650;BME280;26342;42.826;23.992;2024-01-06T02:24:34;94985.88;;;5.17;100.00
40650;BME280;26342;42.826;23.992;2024-01-06T02:27:00;94996.81;;;5.20;100.00
40650;BME280;26342;42.826;23.992;2024-01-06T02:29:25;94986.69;;;5.17;100.00
40650;BME280;26342;42.826;23.992;2024-01-06T02:31:50;94994.66;;;5.06;100.00
40650;BME280;26342;42.826;23.992;2024-01-06T02:34:16;94985.22;;;5.10;100.00
40650;BME280;26342;42.826;23.992;2024-01-06T02:36:42;94979.59;;;5.06;100.00
40650;BME280;26342;42.826;23.992;2024-01-06T02:39:08;94980.03;;;5.03;100.00
40650;BME280;26342;42.826;23.992;2024-01-06T02:41:33;94968.88;;;5.01;100.00
40650;BME280;26342;42.826;23.992;2024-01-06T02:43:59;94968.41;;;5.04;100.00
40650;BME280;26342;42.826;23.992;2024-01-06T02:46:24;94962.44;;;5.09;100.00
40650;BME280;26342;42.826;23.992;2024-01-06T02:48:49;94964.97;;;5.03;100.00
40650;BME280;26342;42.826;23.992;2024-01-06T02:51:15;94964.63;;;5.12;100.00
40650;BME280;26342;42.826;23.992;2024-01-06T02:53:40;94946.94;;;5.00;100.00
40650;BME280;26342;42.826;23.992;2024-01-06T02:56:10;94964.63;;;5.12;100.00
40650;BME280;26342;42.826;23.992;2024-01-06T02:58:36;94972.09;;;5.03;100.00
40650;BME280;26342;42.826;23.992;2024-01-06T03:01:01;94958.56;;;4.99;100.00
40650;BME280;26342;42.826;23.992;2024-01-06T03:03:27;94973.81;;;4.97;100.00
40650;BME280;26342;42.826;23.992;2024-01-06T03:05:52;94966.13;;;4.96;100.00
40650;BME280;26342;42.826;23.992;2024-01-06T03:08:17;94956.16;;;4.98;100.00
40650;BME280;26342;42.826;23.992;2024-01-06T03:10:43;94957.06;;;4.92;100.00
40650;BME280;26342;42.826;23.992;2024-01-06T03:13:08;94951.53;;;4.82;100.00
40650;BME280;26342;42.826;23.992;2024-01-06T03:15:34;94955.47;;;4.91;100.00
40650;BME280;26342;42.826;23.992;2024-01-06T03:17:59;94943.97;;;4.85;100.00
40650;BME280;26342;42.826;23.992;2024-01-06T03:20:24;94939.59;;;4.79;100.00
40650;BME280;26342;42.826;23.992;2024-01-06T03:22:50;94940.63;;;4.78;100.00
40650;BME280;26342;42.826;23.992;2024-01-06T03:25:15;94928.09;;;4.73;100.00
40650;BME280;26342;42.826;23.992;2024-01-06T03:27:40;94938.47;;;4.75;100.00
40650;BME280;26342;42.826;23.992;2024-01-06T03:30:06;94925.22;;;4.87;100.00
40650;BME280;26342;42.826;23.992;2024-01-06T03:32:32;94926.25;;;4.86;100.00
40650;BME280;26342;42.826;23.992;2024-01-06T03:34:57;94939.00;;;4.89;100.00
40650;BME280;26342;42.826;23.992;2024-01-06T03:37:23;94927.75;;;4.93;100.00
40650;BME280;26342;42.826;23.992;2024-01-06T03:39:48;94933.59;;;4.95;100.00
40650;BME280;26342;42.826;23.992;2024-01-06T03:42:13;94920.94;;;4.97;100.00
40650;BME280;26342;42.826;23.992;2024-01-06T03:44:39;94913.38;;;4.89;100.00
40650;BME280;26342;42.826;23.992;2024-01-06T03:47:04;94918.88;;;4.88;100.00
40650;BME280;26342;42.826;23.992;2024-01-06T03:49:30;94920.72;;;4.87;100.00
40650;BME280;26342;42.826;23.992;2024-01-06T03:51:55;94925.22;;;4.87;100.00
40650;BME280;26342;42.826;23.992;2024-01-06T03:54:21;94914.06;;;4.85;100.00
40650;BME280;26342;42.826;23.992;2024-01-06T03:56:47;94915.13;;;4.84;100.00
40650;BME280;26342;42.826;23.992;2024-01-06T03:59:13;94924.78;;;4.90;100.00
40650;BME280;26342;42.826;23.992;2024-01-06T04:01:38;94922.34;;;4.88;100.00
40650;BME280;26342;42.826;23.992;2024-01-06T04:04:04;94928.44;;;4.89;100.00
40650;BME280;26342;42.826;23.992;2024-01-06T04:06:29;94912.34;;;4.79;100.00
40650;BME280;26342;42.826;23.992;2024-01-06T04:08:57;94909.59;;;4.85;100.00
40650;BME280;26342;42.826;23.992;2024-01-06T04:11:22;94912.00;;;4.87;100.00
40650;BME280;26342;42.826;23.992;2024-01-06T04:13:48;94922.34;;;4.88;100.00
40650;BME280;26342;42.826;23.992;2024-01-06T04:16:13;94923.72;;;4.79;100.00
40650;BME280;26342;42.826;23.992;2024-01-06T04:18:39;94923.50;;;4.81;100.00
40650;BME280;26342;42.826;23.992;2024-01-06T04:21:04;94921.09;;;4.79;100.00
40650;BME280;26342;42.826;23.992;2024-01-06T04:23:34;94929.81;;;4.80;100.00
40650;BME280;26342;42.826;23.992;2024-01-06T04:25:59;94927.09;;;4.74;100.00
40650;BME280;26342;42.826;23.992;2024-01-06T04:28:25;94923.97;;;4.78;100.00
40650;BME280;26342;42.826;23.992;2024-01-06T04:30:51;94935.13;;;4.68;100.00
40650;BME280;26342;42.826;23.992;2024-01-06T04:33:16;94929.84;;;4.68;100.00
40650;BME280;26342;42.826;23.992;2024-01-06T04:35:42;94924.19;;;4.64;100.00
40650;BME280;26342;42.826;23.992;2024-01-06T04:38:07;94925.00;;;4.65;100.00
40650;BME280;26342;42.826;23.992;2024-01-06T04:40:32;94923.50;;;4.69;100.00
40650;BME280;26342;42.826;23.992;2024-01-06T04:42:58;94926.59;;;4.66;100.00
40650;BME280;26342;42.826;23.992;2024-01-06T04:45:23;94932.56;;;4.73;100.00
40650;BME280;26342;42.826;23.992;2024-01-06T04:47:50;94942.34;;;4.72;100.00
40650;BME280;26342;42.826;23.992;2024-01-06T04:50:15;94931.56;;;4.74;100.00
40650;BME280;26342;42.826;23.992;2024-01-06T04:52:41;94916.84;;;4.78;100.00
40650;BME280;26342;42.826;23.992;2024-01-06T04:55:06;94922.25;;;4.71;100.00
40650;BME280;26342;42.826;23.992;2024-01-06T04:57:32;94912.59;;;4.77;100.00
40650;BME280;26342;42.826;23.992;2024-01-06T04:59:57;94909.22;;;4.82;100.00
40650;BME280;26342;42.826;23.992;2024-01-06T05:02:23;94904.75;;;4.94;100.00
40650;BME280;26342;42.826;23.992;2024-01-06T05:04:48;94911.06;;;4.93;100.00
40650;BME280;26342;42.826;23.992;2024-01-06T05:07:14;94896.34;;;4.97;100.00
40650;BME280;26342;42.826;23.992;2024-01-06T05:09:39;94905.44;;;4.89;100.00
40650;BME280;26342;42.826;23.992;2024-01-06T05:12:05;94901.97;;;4.89;100.00
40650;BME280;26342;42.826;23.992;2024-01-06T05:14:30;94899.56;;;4.99;100.00
40650;BME280;26342;42.826;23.992;2024-01-06T05:16:55;94911.41;;;5.08;100.00
40650;BME280;26342;42.826;23.992;2024-01-06T05:19:21;94909.34;;;4.98;100.00
40650;BME280;26342;42.826;23.992;2024-01-06T05:21:47;94917.41;;;4.80;100.00
40650;BME280;26342;42.826;23.992;2024-01-06T05:24:13;94900.41;;;4.76;100.00
40650;BME280;26342;42.826;23.992;2024-01-06T05:26:38;94908.31;;;4.88;100.00
40650;BME280;26342;42.826;23.992;2024-01-06T05:29:04;94912.91;;;4.92;100.00
40650;BME280;26342;42.826;23.992;2024-01-06T05:31:30;94917.41;;;4.92;100.00
40650;BME280;26342;42.826;23.992;2024-01-06T05:33:55;94901.09;;;4.83;100.00
40650;BME280;26342;42.826;23.992;2024-01-06T05:36:20;94918.88;;;4.88;100.00
40650;BME280;26342;42.826;23.992;2024-01-06T05:38:46;94909.34;;;4.87;100.00
40650;BME280;26342;42.826;23.992;2024-01-06T05:41:11;94916.72;;;4.85;100.00
40650;BME280;26342;42.826;23.992;2024-01-06T05:43:37;94906.94;;;4.85;100.00
40650;BME280;26342;42.826;23.992;2024-01-06T05:46:02;94920.16;;;4.85;100.00
40650;BME280;26342;42.826;23.992;2024-01-06T05:48:27;94915.44;;;4.87;100.00
40650;BME280;26342;42.826;23.992;2024-01-06T05:50:53;94911.75;;;4.88;100.00
40650;BME280;26342;42.826;23.992;2024-01-06T05:53:19;94899.94;;;4.79;100.00
40650;BME280;26342;42.826;23.992;2024-01-06T05:55:44;94902.03;;;4.77;100.00
40650;BME280;26342;42.826;23.992;2024-01-06T05:58:10;94898.09;;;4.80;100.00
40650;BME280;26342;42.826;23.992;2024-01-06T06:00:35;94881.78;;;4.71;100.00
40650;BME280;26342;42.826;23.992;2024-01-06T06:03:00;94898.09;;;4.80;100.00
40650;BME280;26342;42.826;23.992;2024-01-06T06:05:26;94902.66;;;4.96;100.00
40650;BME280;26342;42.826;23.992;2024-01-06T06:07:51;94906.00;;;5.03;100.00
40650;BME280;26342;42.826;23.992;2024-01-06T06:10:17;94903.25;;;4.98;100.00
40650;BME280;26342;42.826;23.992;2024-01-06T06:12:44;94898.84;;;5.03;100.00
40650;BME280;26342;42.826;23.992;2024-01-06T06:15:10;94892.00;;;4.91;100.00
40650;BME280;26342;42.826;23.992;2024-01-06T06:17:35;94895.69;;;4.90;100.00
40650;BME280;26342;42.826;23.992;2024-01-06T06:20:01;94889.00;;;4.99;100.00
40650;BME280;26342;42.826;23.992;2024-01-06T06:22:27;94877.03;;;4.96;100.00
40650;BME280;26342;42.826;23.992;2024-01-06T06:24:56;94886.59;;;4.86;100.00
40650;BME280;26342;42.826;23.992;2024-01-06T06:27:22;94878.91;;;4.84;100.00
40650;BME280;26342;42.826;23.992;2024-01-06T06:29:47;94873.38;;;4.86;100.00
40650;BME280;26342;42.826;23.992;2024-01-06T06:32:13;94870.75;;;4.86;100.00
40650;BME280;26342;42.826;23.992;2024-01-06T06:34:38;94835.50;;;4.68;100.00
40650;BME280;26342;42.826;23.992;2024-01-06T06:37:03;94868.91;;;4.86;100.00
40650;BME280;26342;42.826;23.992;2024-01-06T06:39:29;94871.53;;;4.86;100.00
40650;BME280;26342;42.826;23.992;2024-01-06T06:41:56;94864.41;;;4.98;100.00
40650;BME280;26342;42.826;23.992;2024-01-06T06:44:21;94865.06;;;5.06;100.00
40650;BME280;26342;42.826;23.992;2024-01-06T06:46:47;94857.94;;;5.06;100.00
40650;BME280;26342;42.826;23.992;2024-01-06T06:49:12;94862.88;;;5.14;100.00
40650;BME280;26342;42.826;23.992;2024-01-06T06:51:38;94837.00;;;5.04;100.00
40650;BME280;26342;42.826;23.992;2024-01-06T06:54:11;94869.69;;;5.27;100.00
40650;BME280;26342;42.826;23.992;2024-01-06T06:56:36;94852.34;;;5.31;100.00
40650;BME280;26342;42.826;23.992;2024-01-06T06:59:02;94856.09;;;5.35;100.00
40650;BME280;26342;42.826;23.992;2024-01-06T07:01:27;94856.09;;;5.35;100.00
40650;BME280;26342;42.826;23.992;2024-01-06T07:03:52;94856.44;;;5.39;100.00
40650;BME280;26342;42.826;23.992;2024-01-06T07:06:19;94850.09;;;5.40;100.00
40650;BME280;26342;42.826;23.992;2024-01-06T07:08:44;94853.72;;;5.50;100.00
40650;BME280;26342;42.826;23.992;2024-01-06T07:11:09;94847.97;;;5.53;100.00
40650;BME280;26342;42.826;23.992;2024-01-06T07:13:36;94852.28;;;5.59;100.00
40650;BME280;26342;42.826;23.992;2024-01-06T07:16:02;94857.63;;;5.76;100.00
40650;BME280;26342;42.826;23.992;2024-01-06T07:18:28;94864.75;;;5.76;100.00
40650;BME280;26342;42.826;23.992;2024-01-06T07:20:53;94860.50;;;5.75;100.00
40650;BME280;26342;42.826;23.992;2024-01-06T07:23:19;94862.22;;;5.81;100.00
40650;BME280;26342;42.826;23.992;2024-01-06T07:25:44;94858.34;;;5.72;100.00
40650;BME280;26342;42.826;23.992;2024-01-06T07:28:10;94858.84;;;5.85;100.00
40650;BME280;26342;42.826;23.992;2024-01-06T07:30:35;94856.13;;;5.80;100.00
40650;BME280;26342;42.826;23.992;2024-01-06T07:33:00;94858.72;;;5.92;100.00
40650;BME280;26342;42.826;23.992;2024-01-06T07:35:26;94847.47;;;5.85;100.00
40650;BME280;26342;42.826;23.992;2024-01-06T07:37:51;94845.38;;;5.87;100.00
40650;BME280;26342;42.826;23.992;2024-01-06T07:40:18;94842.72;;;5.87;100.00
40650;BME280;26342;42.826;23.992;2024-01-06T07:42:44;94854.56;;;5.84;100.00
40650;BME280;26342;42.826;23.992;2024-01-06T07:45:09;94846.59;;;5.96;100.00
40650;BME280;26342;42.826;23.992;2024-01-06T07:47:35;94852.22;;;6.33;100.00
40650;BME280;26342;42.826;23.992;2024-01-06T07:50:00;94845.00;;;6.67;100.00
40650;BME280;26342;42.826;23.992;2024-01-06T07:52:26;94853.13;;;7.48;100.00
40650;BME280;26342;42.826;23.992;2024-01-06T07:54:51;94843.34;;;8.40;100.00
40650;BME280;26342;42.826;23.992;2024-01-06T07:57:16;94831.41;;;8.95;93.12
40650;BME280;26342;42.826;23.992;2024-01-06T07:59:42;94851.59;;;9.48;87.99
40650;BME280;26342;42.826;23.992;2024-01-06T08:02:07;94840.22;;;9.89;87.07
40650;BME280;26342;42.826;23.992;2024-01-06T08:04:34;94826.59;;;10.00;79.15
40650;BME280;26342;42.826;23.992;2024-01-06T08:06:59;94834.38;;;10.32;76.94
40650;BME280;26342;42.826;23.992;2024-01-06T08:09:25;94828.75;;;10.39;76.94
40650;BME280;26342;42.826;23.992;2024-01-06T08:11:50;94824.72;;;10.72;74.28
40650;BME280;26342;42.826;23.992;2024-01-06T08:14:16;94816.41;;;10.79;72.52
40650;BME280;26342;42.826;23.992;2024-01-06T08:16:43;94827.28;;;11.08;67.02
40650;BME280;26342;42.826;23.992;2024-01-06T08:19:08;94832.56;;;11.18;66.25
40650;BME280;26342;42.826;23.992;2024-01-06T08:21:34;94837.63;;;11.30;65.99
40650;BME280;26342;42.826;23.992;2024-01-06T08:24:00;94828.53;;;11.26;65.77
40650;BME280;26342;42.826;23.992;2024-01-06T08:26:25;94840.53;;;11.33;67.85
40650;BME280;26342;42.826;23.992;2024-01-06T08:28:51;94833.31;;;11.34;67.72
40650;BME280;26342;42.826;23.992;2024-01-06T08:31:17;94834.91;;;11.40;68.74
40650;BME280;26342;42.826;23.992;2024-01-06T08:33:43;94824.44;;;11.49;66.66
40650;BME280;26342;42.826;23.992;2024-01-06T08:36:09;94821.25;;;11.46;66.51
40650;BME280;26342;42.826;23.992;2024-01-06T08:38:34;94819.53;;;11.61;65.11
40650;BME280;26342;42.826;23.992;2024-01-06T08:41:01;94832.84;;;11.71;65.11
40650;BME280;26342;42.826;23.992;2024-01-06T08:43:27;94819.72;;;11.74;63.63
40650;BME280;26342;42.826;23.992;2024-01-06T08:45:53;94821.31;;;11.75;66.01
40650;BME280;26342;42.826;23.992;2024-01-06T08:48:18;94805.63;;;11.64;65.80
40650;BME280;26342;42.826;23.992;2024-01-06T08:50:44;94817.34;;;11.73;67.42
40650;BME280;26342;42.826;23.992;2024-01-06T08:53:11;94811.75;;;11.69;65.70
40650;BME280;26342;42.826;23.992;2024-01-06T08:55:36;94803.94;;;11.78;66.47
40650;BME280;26342;42.826;23.992;2024-01-06T08:58:02;94808.16;;;11.89;63.74
40650;BME280;26342;42.826;23.992;2024-01-06T09:00:27;94811.34;;;11.91;64.03
40650;BME280;26342;42.826;23.992;2024-01-06T09:02:52;94801.94;;;11.99;63.45
40650;BME280;26342;42.826;23.992;2024-01-06T09:05:18;94800.19;;;12.18;61.13
40650;BME280;26342;42.826;23.992;2024-01-06T09:07:43;94783.94;;;12.39;59.85
40650;BME280;26342;42.826;23.992;2024-01-06T09:10:14;94801.84;;;12.43;60.99
40650;BME280;26342;42.826;23.992;2024-01-06T09:12:39;94789.78;;;12.46;60.54
40650;BME280;26342;42.826;23.992;2024-01-06T09:15:05;94788.88;;;12.55;60.44
40650;BME280;26342;42.826;23.992;2024-01-06T09:17:32;94774.63;;;12.65;59.24
40650;BME280;26342;42.826;23.992;2024-01-06T09:19:57;94784.75;;;12.68;58.23
40650;BME280;26342;42.826;23.992;2024-01-06T09:22:23;94784.16;;;12.71;59.83
40650;BME280;26342;42.826;23.992;2024-01-06T09:24:49;94784.28;;;12.61;61.84
40650;BME280;26342;42.826;23.992;2024-01-06T09:27:14;94780.28;;;12.58;61.81
40650;BME280;26342;42.826;23.992;2024-01-06T09:29:41;94769.50;;;12.64;62.10
40650;BME280;26342;42.826;23.992;2024-01-06T09:32:06;94769.25;;;12.65;62.09
40650;BME280;26342;42.826;23.992;2024-01-06T09:34:32;94775.28;;;12.76;59.60
40650;BME280;26342;42.826;23.992;2024-01-06T09:36:57;94779.34;;;12.73;61.37
40650;BME280;26342;42.826;23.992;2024-01-06T09:39:22;94779.50;;;12.82;59.49
40650;BME280;26342;42.826;23.992;2024-01-06T09:41:48;94769.25;;;12.89;62.87
40650;BME280;26342;42.826;23.992;2024-01-06T09:44:13;94765.50;;;12.90;62.68
40650;BME280;26342;42.826;23.992;2024-01-06T09:46:41;94772.59;;;13.00;61.08
40650;BME280;26342;42.826;23.992;2024-01-06T09:49:08;94764.44;;;13.10;63.36
40650;BME280;26342;42.826;23.992;2024-01-06T09:51:36;94772.22;;;13.11;63.86
40650;BME280;26342;42.826;23.992;2024-01-06T09:54:05;94775.16;;;13.10;63.30
40650;BME280;26342;42.826;23.992;2024-01-06T09:56:33;94772.13;;;13.17;62.92
40650;BME280;26342;42.826;23.992;2024-01-06T09:58:59;94755.53;;;13.20;63.88
40650;BME280;26342;42.826;23.992;2024-01-06T10:01:25;94739.78;;;13.13;61.89
40650;BME280;26342;42.826;23.992;2024-01-06T10:03:50;94748.03;;;13.17;63.59
40650;BME280;26342;42.826;23.992;2024-01-06T10:06:16;94751.78;;;13.16;63.78
40650;BME280;26342;42.826;23.992;2024-01-06T10:08:43;94742.16;;;13.14;63.42
40650;BME280;26342;42.826;23.992;2024-01-06T10:11:09;94734.91;;;13.15;62.92
40650;BME280;26342;42.826;23.992;2024-01-06T10:13:35;94708.56;;;13.03;64.90
40650;BME280;26342;42.826;23.992;2024-01-06T10:16:00;94710.38;;;13.08;65.32
40650;BME280;26342;42.826;23.992;2024-01-06T10:18:27;94705.34;;;13.01;63.42
40650;BME280;26342;42.826;23.992;2024-01-06T10:20:55;94700.25;;;13.05;68.10
40650;BME280;26342;42.826;23.992;2024-01-06T10:23:28;94698.66;;;13.04;66.01
40650;BME280;26342;42.826;23.992;2024-01-06T10:25:54;94694.53;;;13.11;68.22
40650;BME280;26342;42.826;23.992;2024-01-06T10:28:21;94700.88;;;13.16;65.37
40650;BME280;26342;42.826;23.992;2024-01-06T10:30:48;94694.91;;;13.24;64.32
40650;BME280;26342;42.826;23.992;2024-01-06T10:33:13;94697.69;;;13.37;64.70
40650;BME280;26342;42.826;23.992;2024-01-06T10:35:40;94697.59;;;13.43;64.86
40650;BME280;26342;42.826;23.992;2024-01-06T10:38:07;94686.00;;;13.47;62.67
40650;BME280;26342;42.826;23.992;2024-01-06T10:40:32;94684.75;;;13.58;64.41
40650;BME280;26342;42.826;23.992;2024-01-06T10:43:00;94684.91;;;13.67;63.20
40650;BME280;26342;42.826;23.992;2024-01-06T10:45:28;94681.25;;;13.77;61.82
40650;BME280;26342;42.826;23.992;2024-01-06T10:47:54;94685.94;;;13.85;65.38
40650;BME280;26342;42.826;23.992;2024-01-06T10:50:20;94661.03;;;13.84;63.34
40650;BME280;26342;42.826;23.992;2024-01-06T10:52:47;94679.38;;;13.77;65.72
40650;BME280;26342;42.826;23.992;2024-01-06T10:55:15;94687.41;;;13.77;66.50
40650;BME280;26342;42.826;23.992;2024-01-06T10:57:43;94677.00;;;13.76;65.81
40650;BME280;26342;42.826;23.992;2024-01-06T11:00:10;94657.78;;;13.68;69.17
40650;BME280;26342;42.826;23.992;2024-01-06T11:02:36;94676.94;;;13.62;68.51
40650;BME280;26342;42.826;23.992;2024-01-06T11:05:02;94669.97;;;13.61;69.50
40650;BME280;26342;42.826;23.992;2024-01-06T11:07:28;94662.72;;;13.61;67.29
40650;BME280;26342;42.826;23.992;2024-01-06T11:10:02;94654.69;;;13.61;67.41
40650;BME280;26342;42.826;23.992;2024-01-06T11:12:30;94657.16;;;13.58;69.04
40650;BME280;26342;42.826;23.992;2024-01-06T11:14:55;94664.91;;;13.59;70.65
40650;BME280;26342;42.826;23.992;2024-01-06T11:17:50;94653.09;;;13.60;69.59
40650;BME280;26342;42.826;23.992;2024-01-06T11:20:22;94646.22;;;13.54;71.75
40650;BME280;26342;42.826;23.992;2024-01-06T11:22:48;94651.94;;;13.48;69.97
40650;BME280;26342;42.826;23.992;2024-01-06T11:25:16;94643.00;;;13.38;70.84
40650;BME280;26342;42.826;23.992;2024-01-06T11:27:43;94654.34;;;13.49;72.04
40650;BME280;26342;42.826;23.992;2024-01-06T11:30:20;94652.75;;;13.48;69.81
40650;BME280;26342;42.826;23.992;2024-01-06T11:32:45;94647.88;;;13.50;72.34
40650;BME280;26342;42.826;23.992;2024-01-06T11:35:14;94643.31;;;13.51;71.87
40650;BME280;26342;42.826;23.992;2024-01-06T11:42:35;94631.59;;;13.47;70.03
40650;BME280;26342;42.826;23.992;2024-01-06T11:45:07;94644.13;;;13.51;73.23
40650;BME280;26342;42.826;23.992;2024-01-06T11:47:36;94646.28;;;13.49;70.52
40650;BME280;26342;42.826;23.992;2024-01-06T11:50:02;94617.19;;;13.43;74.29
40650;BME280;26342;42.826;23.992;2024-01-06T11:52:31;94632.69;;;13.46;70.51
40650;BME280;26342;42.826;23.992;2024-01-06T11:54:58;94630.09;;;13.40;74.48
40650;BME280;26342;42.826;23.992;2024-01-06T11:57:28;94627.69;;;13.39;74.12
40650;BME280;26342;42.826;23.992;2024-01-06T11:59:54;94621.72;;;13.28;75.96
40650;BME280;26342;42.826;23.992;2024-01-06T12:02:20;94611.88;;;13.24;76.17
40650;BME280;26342;42.826;23.992;2024-01-06T12:04:53;94607.88;;;13.21;77.08
40650;BME280;26342;42.826;23.992;2024-01-06T12:07:20;94610.56;;;13.21;76.50
40650;BME280;26342;42.826;23.992;2024-01-06T12:09:47;94591.06;;;13.16;76.17
40650;BME280;26342;42.826;23.992;2024-01-06T12:12:15;94606.22;;;13.25;78.22
40650;BME280;26342;42.826;23.992;2024-01-06T12:14:41;94603.66;;;13.34;77.97
40650;BME280;26342;42.826;23.992;2024-01-06T12:17:12;94602.72;;;13.44;75.52
40650;BME280;26342;42.826;23.992;2024-01-06T12:19:39;94613.19;;;13.59;74.95
40650;BME280;26342;42.826;23.992;2024-01-06T12:22:07;94592.81;;;13.58;74.74
40650;BME280;26342;42.826;23.992;2024-01-06T12:24:32;94607.84;;;13.73;72.61
40650;BME280;26342;42.826;23.992;2024-01-06T12:26:58;94600.81;;;13.77;73.24
40650;BME280;26342;42.826;23.992;2024-01-06T12:29:28;94586.31;;;13.78;72.25
40650;BME280;26342;42.826;23.992;2024-01-06T12:31:59;94573.78;;;13.73;74.25
40650;BME280;26342;42.826;23.992;2024-01-06T12:34:24;94576.31;;;13.83;73.98
40650;BME280;26342;42.826;23.992;2024-01-06T12:36:53;94595.34;;;13.82;74.30
40650;BME280;26342;42.826;23.992;2024-01-06T12:39:20;94592.78;;;13.77;73.68
40650;BME280;26342;42.826;23.992;2024-01-06T12:41:46;94579.53;;;13.66;74.71
40650;BME280;26342;42.826;23.992;2024-01-06T12:44:11;94574.09;;;13.72;76.49
40650;BME280;26342;42.826;23.992;2024-01-06T12:46:38;94586.19;;;13.69;75.52
40650;BME280;26342;42.826;23.992;2024-01-06T12:49:03;94569.41;;;13.63;75.70